Hovedside
METAR-TAF:

METAR-TAF

Lufthavner :

Dusjanbe, Tadsjikistan

breddegrad: 38-33N, lengdegrad: 068-47E, høyde over havet: 803 m

Gjeldene værobservasjon

Denne rapporten ble laget for 32 minutter siden, klokken 19:00 UTC
Vind 6 kt fra Nordøst
Temperatur 5°C
Luftfuktighet 60%
Trykk 1024 hPa
Sikt 10 km eller mer

METAR: UTDD 191900Z 04003MPS 9999 NSC 05/M02 Q1024 R09/D NOSIG RMK QFE699/0932

Tid: 00:32 (19:32 UTC)

Varsel

Denne rapporten ble laget for 1 time og 32 minutter siden, klokken 18:00 UTC
Varsel gyldig fra 19. klokken 19 UTC til 20. klokken 07 UTC
Vind 4 kt fra skiftende retning
Sikt: 4000 m
Få skyer i en høyde av 6600 ft
Spredte skyer i en høyde av 15000 ft
dis, røyk
Midlertidig
fra 19. klokken 19 UTC til 20. klokken 07 UTC
Sikt: 1000 m
dis, røyk

TAF: UTDD 191800Z 1919/2007 VRB02MPS 4000 BR FU FEW066 SCT150 TEMPO 1919/2007 1000 BR FU

Værobservasjoner og værvarsel for over 4000 flyplasser (METAR- og TAF-rapporter).

Tilgjengelige stasjoner er representert av de røde og gule prikkene på kartet.

Hold musepekeren over prikken for å se navnet på stasjonen.

Klikk så for å se værobservasjoner og -varsler.

For å forandre kartet kan du klikke på den grønne knappen med svart kryss for å zoome inn, på den grønne knappen med strek for å zoome ut, eller på de grønne pilene for å se tilstøtende kart.


METAR-TAF: